Time;durP1;ratioP1;P1;durP2;ratioP2;P2;SDS_P1;SDS_P2;PMS_P1;PMS_P2;Temp;Humidity;BMP_temperature;BMP_pressure;BME280_temperature;BME280_humidity;BME280_pressure;Samples;Min_cycle;Max_cycle;Signal;HPM_P1;HPM_P2
2021/04/30 00:01:51;;;;;;;18.47;11.93;;;;;;;8.30;100.00;95658.16;5059222;28;20235;-72
2021/04/30 00:04:17;;;;;;;15.47;9.20;;;;;;;8.25;100.00;95659.66;5059426;28;20676;-72
2021/04/30 00:06:45;;;;;;;17.17;10.80;;;;;;;8.01;100.00;95668.50;5058467;28;20295;-72
2021/04/30 00:09:11;;;;;;;17.43;11.00;;;;;;;8.08;100.00;95668.63;5058996;28;20224;-72
2021/04/30 00:11:37;;;;;;;16.83;11.03;;;;;;;8.08;100.00;95671.25;5058767;28;20281;-72
2021/04/30 00:14:04;;;;;;;21.37;12.33;;;;;;;8.15;100.00;95680.09;5059275;28;20768;-72
2021/04/30 00:16:29;;;;;;;19.17;12.30;;;;;;;8.19;100.00;95673.50;5058766;28;20204;-72
2021/04/30 00:18:56;;;;;;;19.30;12.23;;;;;;;8.19;100.00;95676.13;5058805;28;20717;-72
2021/04/30 00:21:21;;;;;;;21.93;12.43;;;;;;;8.13;100.00;95671.53;5058951;28;20209;-72
2021/04/30 00:23:48;;;;;;;21.90;13.40;;;;;;;8.15;100.00;95672.22;5059852;28;20696;-71
2021/04/30 00:26:14;;;;;;;18.60;11.10;;;;;;;8.15;100.00;95670.41;5058985;28;20211;-71
2021/04/30 00:28:40;;;;;;;18.07;10.93;;;;;;;8.29;100.00;95671.44;5058230;28;20345;-71
2021/04/30 00:31:06;;;;;;;21.83;12.30;;;;;;;8.29;100.00;95671.44;5059056;28;20212;-71
2021/04/30 00:33:32;;;;;;;22.33;13.63;;;;;;;8.22;100.00;95684.47;5059079;28;20220;-71
2021/04/30 00:35:58;;;;;;;20.90;13.20;;;;;;;8.25;100.00;95685.88;5058026;28;20261;-72
2021/04/30 00:38:25;;;;;;;22.63;14.03;;;;;;;8.26;100.00;95687.53;5058767;28;20757;-72
2021/04/30 00:40:52;;;;;;;22.10;13.93;;;;;;;8.43;100.00;95684.59;5057632;28;20266;-72
2021/04/30 00:43:18;;;;;;;25.73;14.37;;;;;;;8.46;100.00;95672.94;5058938;28;20207;-72
2021/04/30 00:45:44;;;;;;;19.97;12.33;;;;;;;8.49;100.00;95670.78;5057635;28;20680;-72
2021/04/30 00:48:11;;;;;;;21.13;13.60;;;;;;;8.38;100.00;95673.00;5058624;28;20232;-72
2021/04/30 00:50:38;;;;;;;21.17;12.43;;;;;;;8.44;100.00;95677.53;5058371;28;20569;-72
2021/04/30 00:53:04;;;;;;;19.17;12.20;;;;;;;8.53;100.00;95675.47;5058484;28;20224;-72
2021/04/30 00:55:30;;;;;;;20.80;13.20;;;;;;;8.55;100.00;95678.75;5057773;28;20197;-72
2021/04/30 00:57:59;;;;;;;24.40;12.97;;;;;;;8.69;100.00;95685.84;5058862;28;20251;-72
2021/04/30 01:00:28;;;;;;;19.77;12.97;;;;;;;8.73;100.00;95681.88;5058005;28;20204;-72
2021/04/30 01:02:54;;;;;;;19.23;12.80;;;;;;;8.67;100.00;95676.53;5058175;28;20208;-72
2021/04/30 01:05:21;;;;;;;22.00;13.33;;;;;;;8.63;100.00;95680.47;5057915;28;20208;-72
2021/04/30 01:07:47;;;;;;;24.70;13.10;;;;;;;8.61;100.00;95685.91;5058426;28;20213;-72
2021/04/30 01:10:14;;;;;;;21.40;14.37;;;;;;;8.61;100.00;95683.28;5057911;28;20266;-72
2021/04/30 01:12:42;;;;;;;20.17;13.43;;;;;;;8.77;100.00;95677.88;5058631;28;20197;-72
2021/04/30 01:15:11;;;;;;;21.50;12.87;;;;;;;8.75;100.00;95671.97;5056978;28;20236;-72
2021/04/30 01:17:37;;;;;;;18.83;11.57;;;;;;;8.69;100.00;95670.09;5057363;28;20205;-72
2021/04/30 01:20:05;;;;;;;19.00;11.90;;;;;;;8.76;100.00;95678.88;5057656;28;20689;-72
2021/04/30 01:22:36;;;;;;;19.27;12.23;;;;;;;8.72;100.00;95680.22;5058134;28;20265;-72
2021/04/30 01:25:04;;;;;;;22.30;12.03;;;;;;;8.82;100.00;95685.22;5057744;28;20200;-72
2021/04/30 01:27:30;;;;;;;19.63;13.00;;;;;;;8.74;100.00;95678.22;5058217;28;20192;-71
2021/04/30 01:29:56;;;;;;;23.67;13.30;;;;;;;8.69;100.00;95677.97;5057599;28;20204;-71
2021/04/30 01:32:22;;;;;;;20.27;12.53;;;;;;;8.74;100.00;95678.22;5057505;28;20204;-72
2021/04/30 01:34:49;;;;;;;20.47;12.63;;;;;;;8.78;100.00;95679.53;5057111;28;20613;-72
2021/04/30 01:37:15;;;;;;;21.80;13.10;;;;;;;8.65;100.00;95681.13;5057723;28;20200;-72
2021/04/30 01:39:42;;;;;;;21.27;13.27;;;;;;;8.63;100.00;95681.31;5057289;28;20229;-72
2021/04/30 01:42:08;;;;;;;19.93;12.90;;;;;;;8.76;100.00;95685.94;5057300;28;20204;-72
2021/04/30 01:44:35;;;;;;;21.63;13.50;;;;;;;8.71;100.00;95681.22;5057551;28;20674;-72
2021/04/30 01:47:02;;;;;;;21.37;13.03;;;;;;;8.83;100.00;95686.84;5056757;28;20208;-72
2021/04/30 01:49:28;;;;;;;19.10;12.27;;;;;;;8.73;100.00;95695.00;5057559;28;20235;-72
2021/04/30 01:51:54;;;;;;;18.67;11.50;;;;;;;8.63;100.00;95696.22;5057199;28;20204;-72
2021/04/30 01:54:21;;;;;;;20.07;11.70;;;;;;;8.60;100.00;95696.59;5057703;28;21035;-72
2021/04/30 01:56:48;;;;;;;19.47;11.23;;;;;;;8.32;100.00;95697.34;5056432;28;20208;-72
2021/04/30 01:59:14;;;;;;;18.03;10.97;;;;;;;8.41;100.00;95699.72;5057422;28;20224;-72
2021/04/30 02:01:40;;;;;;;20.80;11.33;;;;;;;8.42;100.00;95687.41;5057501;28;20229;-72
2021/04/30 02:04:07;;;;;;;19.77;11.33;;;;;;;8.51;100.00;95688.00;5056787;28;20204;-72
2021/04/30 02:06:34;;;;;;;19.77;12.30;;;;;;;8.59;100.00;95690.53;5056886;28;20211;-72
2021/04/30 02:09:00;;;;;;;24.07;11.87;;;;;;;8.65;100.00;95700.31;5056963;28;20808;-72
2021/04/30 02:11:26;;;;;;;21.00;11.93;;;;;;;8.62;100.00;95700.69;5056938;28;20611;-72
2021/04/30 02:13:53;;;;;;;19.77;11.17;;;;;;;8.64;100.00;95709.22;5056693;28;20232;-72
2021/04/30 02:16:19;;;;;;;16.10;10.87;;;;;;;8.73;100.00;95708.13;5056625;28;20212;-72
2021/04/30 02:18:45;;;;;;;19.03;11.53;;;;;;;8.73;100.00;95713.38;5056245;28;20942;-72
2021/04/30 02:21:11;;;;;;;19.63;11.80;;;;;;;8.56;100.00;95722.38;5056993;28;21058;-72
2021/04/30 02:23:38;;;;;;;22.40;12.13;;;;;;;8.29;100.00;95721.31;5056945;28;20209;-72
2021/04/30 02:26:05;;;;;;;18.83;12.17;;;;;;;8.21;100.00;95721.34;5056317;28;20212;-72
2021/04/30 02:28:31;;;;;;;16.73;11.67;;;;;;;8.28;100.00;95714.44;5056775;28;20227;-72
2021/04/30 02:30:58;;;;;;;21.30;12.60;;;;;;;8.34;100.00;95718.97;5056745;28;20208;-72
2021/04/30 02:33:24;;;;;;;19.93;11.97;;;;;;;8.22;100.00;95723.00;5057215;28;20224;-72
2021/04/30 02:35:51;;;;;;;19.73;12.33;;;;;;;8.15;100.00;95724.69;5055737;28;21468;-72
2021/04/30 02:38:18;;;;;;;22.60;12.87;;;;;;;8.25;100.00;95727.88;5056968;28;20220;-72
2021/04/30 02:40:46;;;;;;;22.30;12.30;;;;;;;8.21;100.00;95721.34;5056984;28;20220;-72
2021/04/30 02:43:15;;;;;;;17.90;11.33;;;;;;;8.03;100.00;95719.00;5053524;28;20253;-72
2021/04/30 02:45:42;;;;;;;23.63;11.70;;;;;;;8.02;100.00;95713.94;5055528;28;21284;-72
2021/04/30 02:48:13;;;;;;;19.83;11.53;;;;;;;8.01;100.00;95710.47;5057116;28;20216;-72
2021/04/30 02:50:39;;;;;;;21.17;11.93;;;;;;;7.92;100.00;95714.16;5056108;28;20204;-72
2021/04/30 02:53:05;;;;;;;19.20;11.60;;;;;;;7.98;100.00;95710.00;5056413;28;20214;-72
2021/04/30 02:55:31;;;;;;;21.63;11.67;;;;;;;7.96;100.00;95712.00;5056248;28;20211;-72
2021/04/30 02:58:00;;;;;;;21.97;11.80;;;;;;;7.92;100.00;95722.00;5055892;28;20247;-72
2021/04/30 03:00:27;;;;;;;20.07;11.43;;;;;;;8.03;100.00;95715.53;5056509;28;20247;-72
2021/04/30 03:02:53;;;;;;;21.77;11.80;;;;;;;7.98;100.00;95710.84;5057474;28;20666;-72
2021/04/30 03:05:21;;;;;;;21.87;12.00;;;;;;;8.17;100.00;95701.72;5059525;28;20674;-72
2021/04/30 03:07:47;;;;;;;22.13;11.83;;;;;;;8.20;100.00;95701.38;5060429;28;20421;-72
2021/04/30 03:10:14;;;;;;;20.77;11.83;;;;;;;8.29;100.00;95702.94;5060215;28;20239;-72
2021/04/30 03:12:40;;;;;;;21.30;11.67;;;;;;;8.33;100.00;95710.28;5060851;28;20219;-72
2021/04/30 03:15:07;;;;;;;20.40;11.87;;;;;;;8.38;100.00;95694.00;5059440;28;20220;-72
2021/04/30 03:17:33;;;;;;;22.53;11.37;;;;;;;8.34;100.00;95690.09;5060777;28;20658;-72
2021/04/30 03:19:59;;;;;;;19.33;11.97;;;;;;;8.32;100.00;95687.63;5059956;28;21102;-72
2021/04/30 03:22:26;;;;;;;19.67;11.93;;;;;;;8.29;100.00;95689.81;5060204;28;20204;-72
2021/04/30 03:24:52;;;;;;;19.50;12.63;;;;;;;8.20;100.00;95690.88;5059713;28;20616;-72
2021/04/30 03:27:18;;;;;;;21.10;12.47;;;;;;;8.19;100.00;95702.38;5059856;28;20979;-72
2021/04/30 03:29:45;;;;;;;21.50;11.63;;;;;;;8.17;100.00;95702.53;5059133;28;20224;-72
2021/04/30 03:32:11;;;;;;;23.23;12.67;;;;;;;8.26;100.00;95700.66;5059967;28;20201;-72
2021/04/30 03:34:37;;;;;;;23.57;12.53;;;;;;;8.28;100.00;95698.69;5060303;28;20232;-72
2021/04/30 03:37:04;;;;;;;18.27;12.37;;;;;;;8.25;100.00;95699.00;5058449;28;20269;-72
2021/04/30 03:39:31;;;;;;;23.50;12.77;;;;;;;8.33;100.00;95691.09;5060102;28;20223;-72
2021/04/30 03:41:57;;;;;;;19.90;11.97;;;;;;;8.40;100.00;95695.47;5059934;28;20216;-72
2021/04/30 03:44:24;;;;;;;24.60;12.77;;;;;;;8.34;100.00;95706.66;5059949;28;20201;-72
2021/04/30 03:46:50;;;;;;;20.87;12.00;;;;;;;8.46;100.00;95704.44;5058976;28;20258;-72
2021/04/30 03:49:16;;;;;;;21.87;13.33;;;;;;;8.46;100.00;95709.69;5060247;28;20223;-72
2021/04/30 03:51:43;;;;;;;22.53;13.30;;;;;;;8.45;100.00;95715.94;5059079;28;20206;-72
2021/04/30 03:54:09;;;;;;;22.07;12.90;;;;;;;8.48;100.00;95712.94;5059997;28;20282;-72
2021/04/30 03:56:36;;;;;;;25.70;13.10;;;;;;;8.31;100.00;95699.16;5058260;28;20526;-72
2021/04/30 03:59:02;;;;;;;20.70;13.60;;;;;;;8.13;100.00;95687.28;5060432;28;20220;-72
2021/04/30 04:01:28;;;;;;;23.20;13.70;;;;;;;8.08;100.00;95679.94;5059462;28;20204;-72
2021/04/30 04:03:54;;;;;;;23.33;13.67;;;;;;;8.08;100.00;95681.72;5059191;28;20200;-72
2021/04/30 04:06:20;;;;;;;24.27;14.37;;;;;;;7.99;100.00;95688.88;5058706;28;20204;-72
2021/04/30 04:08:46;;;;;;;26.97;14.97;;;;;;;8.00;100.00;95693.09;5059596;28;20331;-72
2021/04/30 04:11:12;;;;;;;30.90;15.67;;;;;;;8.14;100.00;95684.50;5058835;28;20224;-72
2021/04/30 04:13:39;;;;;;;28.83;15.67;;;;;;;8.14;100.00;95689.75;5059221;28;20228;-72
2021/04/30 04:16:06;;;;;;;34.13;15.70;;;;;;;8.23;100.00;95696.56;5057662;28;20318;-72
2021/04/30 04:18:32;;;;;;;25.53;14.97;;;;;;;8.23;100.00;95698.41;5058925;28;20740;-72
2021/04/30 04:20:58;;;;;;;27.60;15.93;;;;;;;8.15;100.00;95707.13;5058853;28;20204;-72
2021/04/30 04:23:24;;;;;;;33.23;16.00;;;;;;;8.17;100.00;95704.34;5059326;28;20204;-72
2021/04/30 04:25:50;;;;;;;32.07;17.90;;;;;;;8.26;100.00;95717.25;5057934;28;20240;-72
2021/04/30 04:28:16;;;;;;;28.67;16.17;;;;;;;8.30;100.00;95715.06;5059198;28;20228;-72
2021/04/30 04:30:44;;;;;;;27.93;15.80;;;;;;;8.30;100.00;95723.75;5059462;28;20213;-72
2021/04/30 04:33:10;;;;;;;29.40;16.07;;;;;;;8.36;100.00;95723.03;5058739;28;20913;-72
2021/04/30 04:35:36;;;;;;;31.37;16.03;;;;;;;8.35;100.00;95731.94;5058035;28;20201;-72
2021/04/30 04:38:02;;;;;;;25.40;14.67;;;;;;;8.33;100.00;95730.47;5058642;28;20778;-72
2021/04/30 04:40:28;;;;;;;25.73;14.37;;;;;;;8.33;100.00;95725.22;5059349;28;20209;-72
2021/04/30 04:42:54;;;;;;;27.77;14.83;;;;;;;8.33;100.00;95719.97;5058556;28;20234;-72
2021/04/30 04:45:21;;;;;;;24.53;14.67;;;;;;;8.31;100.00;95716.69;5057997;28;20201;-72
2021/04/30 04:47:48;;;;;;;24.67;14.40;;;;;;;8.14;100.00;95723.06;5058462;28;20216;-72
2021/04/30 04:50:15;;;;;;;24.90;15.13;;;;;;;7.91;100.00;95722.19;5058865;28;20617;-72
2021/04/30 04:52:41;;;;;;;25.03;15.10;;;;;;;8.14;100.00;95720.44;5057939;28;20211;-72
2021/04/30 04:55:10;;;;;;;25.63;14.63;;;;;;;8.12;100.00;95715.34;5057721;28;20232;-72
2021/04/30 04:57:36;;;;;;;26.57;15.60;;;;;;;7.84;100.00;95725.69;5057900;28;20616;-72
2021/04/30 05:00:04;;;;;;;27.63;15.57;;;;;;;7.91;100.00;95740.56;5058703;28;20215;-72
2021/04/30 05:02:30;;;;;;;28.83;14.80;;;;;;;8.06;100.00;95741.44;5058792;28;20204;-72
2021/04/30 05:04:57;;;;;;;27.73;15.10;;;;;;;8.16;100.00;95739.44;5057932;28;20335;-72
2021/04/30 05:07:23;;;;;;;27.30;14.70;;;;;;;8.31;100.00;95738.53;5057641;28;20212;-72
2021/04/30 05:09:49;;;;;;;24.40;13.77;;;;;;;8.35;100.00;95742.44;5057993;28;20224;-72
2021/04/30 05:12:15;;;;;;;25.20;14.23;;;;;;;8.44;100.00;95736.13;5058959;28;20205;-72
2021/04/30 05:14:41;;;;;;;25.73;14.90;;;;;;;8.28;100.00;95740.69;5057420;28;20220;-72
2021/04/30 05:17:07;;;;;;;26.77;14.60;;;;;;;8.27;100.00;95752.16;5056784;28;20236;-72
2021/04/30 05:19:33;;;;;;;25.17;14.73;;;;;;;8.17;100.00;95748.94;5058628;28;20223;-72
2021/04/30 05:22:01;;;;;;;29.73;14.40;;;;;;;8.18;100.00;95753.22;5057187;28;20205;-72
2021/04/30 05:24:27;;;;;;;25.77;15.17;;;;;;;8.22;100.00;95747.44;5057626;28;20667;-72
2021/04/30 05:26:53;;;;;;;30.23;18.33;;;;;;;8.30;100.00;95755.25;5056035;28;20438;-71
2021/04/30 05:29:19;;;;;;;29.97;17.53;;;;;;;8.45;100.00;95757.94;5057395;28;20281;-71
2021/04/30 05:31:45;;;;;;;27.40;16.33;;;;;;;8.45;100.00;95750.06;5057616;28;20211;-71
2021/04/30 05:34:11;;;;;;;24.00;14.77;;;;;;;8.45;100.00;95739.56;5058099;28;20232;-71
2021/04/30 05:36:37;;;;;;;27.73;15.77;;;;;;;8.38;100.00;95734.19;5058058;28;20706;-71
2021/04/30 05:39:05;;;;;;;24.60;14.47;;;;;;;8.34;100.00;95737.34;5057578;28;20252;-71
2021/04/30 05:41:31;;;;;;;28.83;15.17;;;;;;;8.16;100.00;95745.50;5058461;28;20203;-71
2021/04/30 05:43:57;;;;;;;25.00;15.07;;;;;;;8.34;100.00;95753.09;5057412;28;20418;-70
2021/04/30 05:46:23;;;;;;;28.10;14.33;;;;;;;8.30;100.00;95751.81;5057108;28;20751;-71
2021/04/30 05:48:49;;;;;;;25.00;14.63;;;;;;;8.33;100.00;95760.16;5057267;28;20259;-71
2021/04/30 05:51:15;;;;;;;24.30;14.83;;;;;;;8.38;100.00;95768.31;5058115;28;20215;-71
2021/04/30 05:53:41;;;;;;;26.17;16.03;;;;;;;8.45;100.00;95755.31;5057229;28;20309;-71
2021/04/30 05:56:08;;;;;;;23.27;14.83;;;;;;;8.44;100.00;95758.91;5056676;28;20208;-71
2021/04/30 05:58:34;;;;;;;28.97;14.53;;;;;;;8.38;100.00;95754.38;5057608;28;20234;-71
2021/04/30 06:01:00;;;;;;;30.73;15.33;;;;;;;8.33;100.00;95759.34;5057190;28;20236;-71
2021/04/30 06:03:26;;;;;;;22.87;13.90;;;;;;;8.47;100.00;95758.59;5057289;28;20208;-71
2021/04/30 06:05:52;;;;;;;25.83;14.17;;;;;;;8.50;100.00;95757.25;5056778;28;20262;-71
2021/04/30 06:08:18;;;;;;;25.83;14.77;;;;;;;8.71;100.00;95740.81;5057677;28;20323;-71
2021/04/30 06:10:44;;;;;;;25.90;15.17;;;;;;;8.75;100.00;95735.03;5056538;28;20694;-71
2021/04/30 06:13:11;;;;;;;26.73;15.07;;;;;;;8.59;100.00;95737.81;5058040;28;20232;-71
2021/04/30 06:15:37;;;;;;;26.20;15.50;;;;;;;8.68;99.46;95747.25;5055946;28;20241;-70
2021/04/30 06:18:03;;;;;;;25.43;15.30;;;;;;;8.75;100.00;95742.91;5057032;28;20960;-71
2021/04/30 06:20:29;;;;;;;27.27;14.80;;;;;;;8.76;100.00;95744.53;5057535;28;20200;-71
2021/04/30 06:22:55;;;;;;;25.57;14.37;;;;;;;8.53;99.33;95738.50;5058764;28;20201;-71
2021/04/30 06:25:21;;;;;;;26.93;14.57;;;;;;;8.53;99.08;95737.69;5056443;28;20205;-71
2021/04/30 06:27:47;;;;;;;23.97;14.13;;;;;;;8.53;100.00;95743.75;5057096;28;20251;-71
2021/04/30 06:30:15;;;;;;;27.60;15.70;;;;;;;8.55;99.06;95744.41;5056611;28;20201;-71
2021/04/30 06:32:43;;;;;;;22.77;14.23;;;;;;;8.63;98.61;95739.06;5057159;28;20270;-71
2021/04/30 06:35:10;;;;;;;24.27;14.57;;;;;;;8.73;98.08;95738.81;5057105;28;20224;-71
2021/04/30 06:37:36;;;;;;;22.07;13.57;;;;;;;8.74;100.00;95736.00;5054131;28;20204;-71
2021/04/30 06:40:03;;;;;;;28.87;14.90;;;;;;;8.80;100.00;95743.19;5056258;28;20954;-71
2021/04/30 06:42:29;;;;;;;28.27;15.37;;;;;;;8.80;100.00;95737.94;5057302;28;20204;-71
2021/04/30 06:44:55;;;;;;;25.70;15.40;;;;;;;8.86;99.53;95734.59;5057005;28;21299;-71
2021/04/30 06:47:22;;;;;;;26.83;14.97;;;;;;;8.98;97.21;95727.91;5056549;28;20204;-71
2021/04/30 06:49:49;;;;;;;28.77;15.10;;;;;;;8.80;98.37;95724.81;5057584;28;20224;-71
2021/04/30 06:52:15;;;;;;;23.27;14.10;;;;;;;9.08;96.14;95717.97;5057000;28;20204;-72
2021/04/30 06:54:41;;;;;;;25.30;15.40;;;;;;;8.99;95.48;95724.28;5057451;28;20228;-71
2021/04/30 06:57:08;;;;;;;23.53;14.03;;;;;;;8.98;95.30;95729.72;5055914;28;20236;-71
2021/04/30 06:59:34;;;;;;;27.40;15.47;;;;;;;9.08;96.95;95731.09;5057155;28;20241;-72
2021/04/30 07:02:00;;;;;;;26.07;15.43;;;;;;;9.08;95.63;95728.47;5056449;28;20204;-71
2021/04/30 07:04:27;;;;;;;22.80;13.20;;;;;;;9.03;92.81;95720.31;5056868;28;20212;-71
2021/04/30 07:06:53;;;;;;;27.40;15.00;;;;;;;8.98;95.48;95713.97;5055449;28;20200;-71
2021/04/30 07:09:18;;;;;;;25.83;15.20;;;;;;;9.25;96.91;95706.25;5056765;28;20267;-72
2021/04/30 07:11:44;;;;;;;28.23;14.53;;;;;;;9.27;95.17;95702.47;5056664;28;21039;-71
2021/04/30 07:14:11;;;;;;;26.60;14.63;;;;;;;9.32;93.74;95702.72;5056453;28;20323;-71
2021/04/30 07:16:37;;;;;;;24.30;14.20;;;;;;;9.48;93.49;95704.34;5055545;28;20211;-72
2021/04/30 07:19:03;;;;;;;23.97;14.77;;;;;;;9.47;93.19;95686.94;5057005;28;20224;-71
2021/04/30 07:21:30;;;;;;;28.80;14.80;;;;;;;9.50;91.96;95678.69;5055911;28;20208;-71
2021/04/30 07:23:56;;;;;;;23.87;13.70;;;;;;;9.61;87.36;95673.78;5056664;28;20201;-71
2021/04/30 07:26:22;;;;;;;23.90;13.93;;;;;;;9.83;88.85;95678.06;5056173;28;20215;-71
2021/04/30 07:28:48;;;;;;;21.57;13.53;;;;;;;10.10;86.83;95664.22;5055569;28;20229;-72
2021/04/30 07:31:14;;;;;;;27.50;14.93;;;;;;;10.32;87.88;95671.91;5055226;28;20342;-72
2021/04/30 07:33:46;;;;;;;24.33;13.90;;;;;;;10.43;89.02;95660.88;5053891;28;20204;-72
2021/04/30 07:36:12;;;;;;;24.17;13.10;;;;;;;10.34;85.81;95652.28;5055400;28;20197;-72
2021/04/30 07:38:39;;;;;;;25.87;13.50;;;;;;;10.25;81.99;95654.44;5051360;28;20220;-72
2021/04/30 07:41:05;;;;;;;23.53;13.23;;;;;;;10.36;83.00;95649.47;5054863;28;20678;-71
2021/04/30 07:43:31;;;;;;;21.67;13.00;;;;;;;10.27;80.80;95644.53;5055464;28;20293;-71
2021/04/30 07:45:59;;;;;;;22.23;12.47;;;;;;;10.18;80.13;95649.09;5055198;28;20411;-71
2021/04/30 07:48:25;;;;;;;20.97;13.17;;;;;;;10.37;83.74;95651.94;5056145;28;20228;-71
2021/04/30 07:50:51;;;;;;;23.63;13.17;;;;;;;10.59;80.62;95647.41;5059692;28;20209;-71
2021/04/30 07:53:17;;;;;;;23.00;13.03;;;;;;;10.41;81.64;95653.16;5059347;28;20200;-72
2021/04/30 07:55:44;;;;;;;21.97;13.00;;;;;;;10.58;83.83;95651.09;5058374;28;20239;-71
2021/04/30 07:58:10;;;;;;;19.87;11.60;;;;;;;10.53;82.58;95635.03;5059371;28;20231;-71
2021/04/30 08:00:36;;;;;;;20.10;12.13;;;;;;;10.71;76.70;95638.00;5059767;28;20211;-71
2021/04/30 08:03:02;;;;;;;20.97;12.80;;;;;;;10.84;81.68;95638.09;5059074;28;20204;-71
2021/04/30 08:05:28;;;;;;;21.50;12.23;;;;;;;10.75;81.01;95634.78;5059033;28;20212;-71
2021/04/30 08:07:54;;;;;;;20.33;12.27;;;;;;;10.85;79.82;95634.44;5058588;28;20224;-71
2021/04/30 08:10:20;;;;;;;19.73;12.33;;;;;;;10.81;78.39;95638.47;5058180;28;20212;-71
2021/04/30 08:12:48;;;;;;;21.83;13.20;;;;;;;10.54;77.66;95636.66;5058468;28;20204;-71
2021/04/30 08:15:15;;;;;;;19.17;12.43;;;;;;;10.68;80.79;95636.56;5058194;28;20228;-71
2021/04/30 08:17:42;;;;;;;23.70;13.27;;;;;;;10.64;81.90;95637.97;5058138;28;20499;-72
2021/04/30 08:20:10;;;;;;;23.53;13.07;;;;;;;10.74;81.51;95634.97;5058401;28;20581;-71
2021/04/30 08:22:36;;;;;;;21.63;13.07;;;;;;;10.68;80.11;95630.47;5057942;28;20208;-71
2021/04/30 08:25:02;;;;;;;21.13;12.10;;;;;;;10.89;79.86;95631.22;5058303;28;20207;-71
2021/04/30 08:27:28;;;;;;;18.27;12.10;;;;;;;10.79;77.49;95629.94;5059166;28;20212;-71
2021/04/30 08:29:55;;;;;;;18.63;11.70;;;;;;;11.09;75.19;95629.53;5058324;28;21230;-71
2021/04/30 08:32:21;;;;;;;20.27;13.13;;;;;;;11.05;79.39;95618.56;5059161;28;20204;-71
2021/04/30 08:34:47;;;;;;;20.50;13.00;;;;;;;10.98;78.46;95615.06;5058380;28;20291;-71
2021/04/30 08:37:13;;;;;;;20.37;13.20;;;;;;;10.94;79.54;95616.44;5058437;28;20215;-71
2021/04/30 08:39:40;;;;;;;19.93;12.60;;;;;;;10.85;77.44;95619.44;5056536;28;20220;-71
2021/04/30 08:42:06;;;;;;;20.27;13.47;;;;;;;10.98;76.59;95632.69;5058268;28;20717;-70
2021/04/30 08:44:35;;;;;;;20.23;12.57;;;;;;;11.13;77.24;95633.41;5058591;28;20204;-71
2021/04/30 08:47:02;;;;;;;20.90;12.50;;;;;;;11.22;78.30;95637.50;5059102;28;20207;-71
2021/04/30 08:49:28;;;;;;;21.17;12.83;;;;;;;11.36;78.72;95644.47;5058720;28;20232;-71
2021/04/30 08:51:54;;;;;;;22.40;13.98;;;;;;;11.58;77.06;95625.72;5057705;28;20244;-71
2021/04/30 08:54:20;;;;;;;25.10;14.20;;;;;;;11.68;81.61;95615.59;5058662;28;20328;-72
2021/04/30 08:56:49;;;;;;;22.35;12.75;;;;;;;11.89;76.88;95620.72;5057997;28;20713;-71
2021/04/30 08:59:15;;;;;;;20.85;12.88;;;;;;;12.18;75.92;95618.53;5058514;28;20324;-71
2021/04/30 09:01:41;;;;;;;22.15;12.80;;;;;;;12.00;71.56;95630.72;5057695;28;20247;-71
2021/04/30 09:04:08;;;;;;;23.23;13.20;;;;;;;12.20;75.41;95635.81;5058998;28;20216;-71
2021/04/30 09:06:36;;;;;;;22.33;13.73;;;;;;;12.25;80.13;95622.81;5057186;28;20204;-71
2021/04/30 09:09:08;;;;;;;21.48;13.77;;;;;;;12.35;77.46;95622.44;5058488;28;20281;-71
2021/04/30 09:11:35;;;;;;;22.35;13.95;;;;;;;12.35;75.73;95628.53;5057614;28;20282;-71
2021/04/30 09:14:29;;;;;;;21.25;13.18;;;;;;;12.39;73.50;95627.09;5055482;28;20220;-71
2021/04/30 09:17:06;;;;;;;20.75;12.80;;;;;;;12.57;72.37;95616.75;5054383;28;20209;-72
2021/04/30 09:19:35;;;;;;;23.58;13.23;;;;;;;12.46;73.12;95604.16;5057949;28;20263;-71
2021/04/30 09:22:04;;;;;;;24.70;14.45;;;;;;;13.06;77.15;95611.81;5058067;28;20200;-70
2021/04/30 09:24:30;;;;;;;23.60;13.60;;;;;;;13.37;71.69;95610.13;5057976;28;20203;-71
2021/04/30 09:26:58;;;;;;;22.00;13.27;;;;;;;13.14;73.79;95603.69;5056702;28;20205;-71
2021/04/30 09:29:26;;;;;;;19.27;13.15;;;;;;;13.40;69.22;95604.41;5057494;28;20227;-71
2021/04/30 09:31:54;;;;;;;20.48;12.90;;;;;;;13.40;72.10;95597.28;5057982;28;20204;-71
2021/04/30 09:34:26;;;;;;;22.38;13.52;;;;;;;13.42;70.11;95582.00;5057982;28;20629;-71
2021/04/30 09:37:10;;;;;;;22.45;12.85;;;;;;;13.53;70.11;95593.75;5056731;28;20205;-71
2021/04/30 09:39:55;;;;;;;22.05;12.68;;;;;;;13.56;67.98;95575.63;5054693;28;20228;-71
2021/04/30 09:42:23;;;;;;;20.15;13.55;;;;;;;13.38;68.52;95579.16;5057574;28;20215;-71
2021/04/30 09:44:51;;;;;;;22.02;14.00;;;;;;;13.67;73.38;95569.69;5057969;28;20197;-71
2021/04/30 09:47:20;;;;;;;23.33;14.32;;;;;;;13.54;72.57;95564.44;5057455;28;20208;-71
2021/04/30 09:49:47;;;;;;;25.30;14.38;;;;;;;13.66;72.07;95561.94;5057540;28;20281;-71
2021/04/30 09:52:14;;;;;;;21.83;13.88;;;;;;;13.41;74.00;95564.50;5057240;28;20222;-71
2021/04/30 09:54:41;;;;;;;24.15;14.65;;;;;;;13.39;70.27;95550.66;5057720;28;20224;-71
2021/04/30 09:57:10;;;;;;;22.85;14.52;;;;;;;13.56;73.36;95543.84;5056511;28;20208;-71
2021/04/30 09:59:37;;;;;;;19.00;12.43;;;;;;;13.46;73.06;95551.44;5057671;28;20220;-70
2021/04/30 10:02:11;;;;;;;20.92;14.52;;;;;;;13.53;70.09;95549.59;5057544;28;20204;-71
2021/04/30 10:04:39;;;;;;;24.63;15.35;;;;;;;13.61;73.92;95544.03;5057473;28;20207;-71
2021/04/30 10:07:06;;;;;;;23.13;14.77;;;;;;;13.98;69.74;95542.41;5055823;28;20258;-71
2021/04/30 10:09:34;;;;;;;26.02;14.75;;;;;;;14.23;74.96;95544.06;5057474;28;20216;-71
2021/04/30 10:12:18;;;;;;;23.95;14.40;;;;;;;14.36;75.54;95534.19;5057153;28;20210;-71
2021/04/30 10:14:44;;;;;;;21.95;13.85;;;;;;;14.66;70.66;95530.63;5057115;28;20239;-71
2021/04/30 10:17:12;;;;;;;21.98;14.02;;;;;;;14.56;71.37;95529.53;5056102;28;20212;-70
2021/04/30 10:19:38;;;;;;;20.60;13.93;;;;;;;14.25;69.74;95526.13;5056902;28;20220;-71
2021/04/30 10:22:05;;;;;;;21.75;13.82;;;;;;;13.90;70.65;95532.88;5057422;28;20205;-71
2021/04/30 10:24:32;;;;;;;26.00;14.70;;;;;;;14.03;73.10;95527.47;5057076;28;20257;-71
2021/04/30 10:26:58;;;;;;;21.90;13.75;;;;;;;14.24;72.26;95527.13;5056109;28;20209;-71
2021/04/30 10:29:27;;;;;;;22.02;14.07;;;;;;;14.82;70.08;95524.75;5056911;28;20256;-71
2021/04/30 10:31:57;;;;;;;20.10;13.57;;;;;;;15.17;68.78;95519.69;5057130;28;20204;-71
2021/04/30 10:34:27;;;;;;;23.88;14.13;;;;;;;15.19;70.21;95510.47;5057215;28;20225;-71
2021/04/30 10:36:55;;;;;;;20.38;13.93;;;;;;;15.12;64.53;95507.09;5055626;28;20269;-72
2021/04/30 10:39:24;;;;;;;20.60;13.75;;;;;;;15.30;63.90;95499.94;5054041;28;20237;-71
2021/04/30 10:41:51;;;;;;;23.88;14.45;;;;;;;15.12;64.83;95496.47;5056659;28;20220;-71
2021/04/30 10:44:21;;;;;;;23.73;14.73;;;;;;;15.30;66.17;95501.81;5056428;28;20217;-71
2021/04/30 10:46:51;;;;;;;21.95;13.93;;;;;;;15.72;66.91;95490.19;5056036;28;20203;-71
2021/04/30 10:49:20;;;;;;;21.42;13.73;;;;;;;15.43;62.99;95496.31;5056704;28;20224;-71
2021/04/30 10:52:16;;;;;;;19.50;13.40;;;;;;;15.41;64.63;95498.38;5056574;28;20208;-71
2021/04/30 10:54:43;;;;;;;19.08;13.40;;;;;;;15.46;62.82;95487.88;4999124;28;20224;-72
2021/04/30 10:57:12;;;;;;;19.40;13.55;;;;;;;15.78;64.74;95489.28;5056181;28;20215;-72
2021/04/30 10:59:46;;;;;;;22.92;13.57;;;;;;;15.74;66.72;95480.94;5056049;28;20239;-71
2021/04/30 11:02:19;;;;;;;18.30;12.90;;;;;;;15.27;61.72;95478.34;5056550;28;20206;-71
2021/04/30 11:05:10;;;;;;;21.33;14.23;;;;;;;15.60;62.06;95470.75;5056805;28;20196;-71
2021/04/30 11:07:37;;;;;;;24.27;13.30;;;;;;;15.42;65.94;95468.94;5056496;28;20262;-71
2021/04/30 11:10:34;;;;;;;19.13;13.50;;;;;;;15.75;62.08;95463.19;5056382;28;20212;-71
2021/04/30 11:13:10;;;;;;;23.38;13.63;;;;;;;15.70;64.15;95471.03;5057926;28;20200;-71
2021/04/30 11:15:58;;;;;;;24.48;14.13;;;;;;;16.32;64.97;95463.28;5054768;28;20619;-72
2021/04/30 11:18:25;;;;;;;24.23;13.65;;;;;;;15.89;61.86;95466.19;5055595;28;20258;-71